sensor_id;sensor_type;location;lat;lon;timestamp;P1;durP1;ratioP1;P2;durP2;ratioP2
7563;SDS011;3823;53.586;10.040;2023-11-18T00:00:27;6.32;;;5.68;;
7563;SDS011;3823;53.586;10.040;2023-11-18T00:02:53;7.78;;;6.50;;
7563;SDS011;3823;53.586;10.040;2023-11-18T00:05:18;8.93;;;6.28;;
7563;SDS011;3823;53.586;10.040;2023-11-18T00:07:44;9.38;;;6.18;;
7563;SDS011;3823;53.586;10.040;2023-11-18T00:10:09;8.00;;;6.15;;
7563;SDS011;3823;53.586;10.040;2023-11-18T00:12:36;8.32;;;6.72;;
7563;SDS011;3823;53.586;10.040;2023-11-18T00:15:06;7.90;;;6.40;;
7563;SDS011;3823;53.586;10.040;2023-11-18T00:17:34;7.78;;;6.45;;
7563;SDS011;3823;53.586;10.040;2023-11-18T00:20:00;10.65;;;7.60;;
7563;SDS011;3823;53.586;10.040;2023-11-18T00:22:27;12.38;;;6.93;;
7563;SDS011;3823;53.586;10.040;2023-11-18T00:24:53;7.88;;;6.00;;
7563;SDS011;3823;53.586;10.040;2023-11-18T00:27:20;8.68;;;6.90;;
7563;SDS011;3823;53.586;10.040;2023-11-18T00:29:47;9.02;;;6.40;;
7563;SDS011;3823;53.586;10.040;2023-11-18T00:32:13;12.23;;;7.18;;
7563;SDS011;3823;53.586;10.040;2023-11-18T00:34:39;10.00;;;6.88;;
7563;SDS011;3823;53.586;10.040;2023-11-18T00:37:04;11.80;;;8.07;;
7563;SDS011;3823;53.586;10.040;2023-11-18T00:39:30;11.00;;;7.82;;
7563;SDS011;3823;53.586;10.040;2023-11-18T00:41:55;10.30;;;7.07;;
7563;SDS011;3823;53.586;10.040;2023-11-18T00:44:21;10.15;;;6.90;;
7563;SDS011;3823;53.586;10.040;2023-11-18T00:46:47;9.95;;;7.07;;
7563;SDS011;3823;53.586;10.040;2023-11-18T00:49:13;8.27;;;7.07;;
7563;SDS011;3823;53.586;10.040;2023-11-18T00:51:38;7.50;;;6.07;;
7563;SDS011;3823;53.586;10.040;2023-11-18T00:54:06;7.80;;;6.53;;
7563;SDS011;3823;53.586;10.040;2023-11-18T00:56:31;9.48;;;6.30;;
7563;SDS011;3823;53.586;10.040;2023-11-18T00:58:57;9.68;;;7.40;;
7563;SDS011;3823;53.586;10.040;2023-11-18T01:01:23;8.00;;;5.78;;
7563;SDS011;3823;53.586;10.040;2023-11-18T01:03:48;9.15;;;6.38;;
7563;SDS011;3823;53.586;10.040;2023-11-18T01:06:14;7.72;;;5.85;;
7563;SDS011;3823;53.586;10.040;2023-11-18T01:08:46;11.68;;;7.63;;
7563;SDS011;3823;53.586;10.040;2023-11-18T01:11:18;8.30;;;6.72;;
7563;SDS011;3823;53.586;10.040;2023-11-18T01:13:47;8.43;;;7.53;;
7563;SDS011;3823;53.586;10.040;2023-11-18T01:16:13;10.70;;;7.80;;
7563;SDS011;3823;53.586;10.040;2023-11-18T01:18:40;9.43;;;7.60;;
7563;SDS011;3823;53.586;10.040;2023-11-18T01:21:06;12.68;;;7.78;;
7563;SDS011;3823;53.586;10.040;2023-11-18T01:23:36;8.20;;;6.40;;
7563;SDS011;3823;53.586;10.040;2023-11-18T01:26:02;8.95;;;7.20;;
7563;SDS011;3823;53.586;10.040;2023-11-18T01:28:32;9.75;;;7.35;;
7563;SDS011;3823;53.586;10.040;2023-11-18T01:31:02;9.75;;;7.35;;
7563;SDS011;3823;53.586;10.040;2023-11-18T01:33:34;8.10;;;6.72;;
7563;SDS011;3823;53.586;10.040;2023-11-18T01:36:05;9.73;;;7.05;;
7563;SDS011;3823;53.586;10.040;2023-11-18T01:38:35;11.90;;;6.95;;
7563;SDS011;3823;53.586;10.040;2023-11-18T01:41:02;8.55;;;7.15;;
7563;SDS011;3823;53.586;10.040;2023-11-18T01:43:30;9.93;;;7.53;;
7563;SDS011;3823;53.586;10.040;2023-11-18T01:45:57;9.48;;;7.10;;
7563;SDS011;3823;53.586;10.040;2023-11-18T01:48:30;9.85;;;7.50;;
7563;SDS011;3823;53.586;10.040;2023-11-18T01:50:58;9.77;;;6.82;;
7563;SDS011;3823;53.586;10.040;2023-11-18T01:53:24;13.23;;;8.30;;
7563;SDS011;3823;53.586;10.040;2023-11-18T01:55:51;10.02;;;7.43;;
7563;SDS011;3823;53.586;10.040;2023-11-18T01:58:17;9.10;;;7.38;;
7563;SDS011;3823;53.586;10.040;2023-11-18T02:00:44;8.13;;;6.75;;
7563;SDS011;3823;53.586;10.040;2023-11-18T02:03:11;10.57;;;7.57;;
7563;SDS011;3823;53.586;10.040;2023-11-18T02:05:38;8.32;;;6.78;;
7563;SDS011;3823;53.586;10.040;2023-11-18T02:08:04;11.38;;;8.05;;
7563;SDS011;3823;53.586;10.040;2023-11-18T02:10:32;8.45;;;7.10;;
7563;SDS011;3823;53.586;10.040;2023-11-18T02:13:06;8.60;;;6.78;;
7563;SDS011;3823;53.586;10.040;2023-11-18T02:15:40;9.60;;;7.32;;
7563;SDS011;3823;53.586;10.040;2023-11-18T02:18:06;8.73;;;6.70;;
7563;SDS011;3823;53.586;10.040;2023-11-18T02:20:34;10.73;;;7.45;;
7563;SDS011;3823;53.586;10.040;2023-11-18T02:23:01;9.45;;;6.78;;
7563;SDS011;3823;53.586;10.040;2023-11-18T02:25:27;11.05;;;7.57;;
7563;SDS011;3823;53.586;10.040;2023-11-18T02:27:54;8.27;;;6.82;;
7563;SDS011;3823;53.586;10.040;2023-11-18T02:30:19;9.40;;;6.53;;
7563;SDS011;3823;53.586;10.040;2023-11-18T02:32:57;10.52;;;7.70;;
7563;SDS011;3823;53.586;10.040;2023-11-18T02:35:32;9.15;;;6.13;;
7563;SDS011;3823;53.586;10.040;2023-11-18T02:38:02;8.77;;;6.70;;
7563;SDS011;3823;53.586;10.040;2023-11-18T02:40:33;9.73;;;7.32;;
7563;SDS011;3823;53.586;10.040;2023-11-18T02:43:01;8.90;;;6.55;;
7563;SDS011;3823;53.586;10.040;2023-11-18T02:45:30;9.55;;;7.13;;
7563;SDS011;3823;53.586;10.040;2023-11-18T02:47:57;11.45;;;7.90;;
7563;SDS011;3823;53.586;10.040;2023-11-18T02:50:25;11.35;;;7.90;;
7563;SDS011;3823;53.586;10.040;2023-11-18T02:52:52;9.73;;;7.35;;
7563;SDS011;3823;53.586;10.040;2023-11-18T02:55:18;9.00;;;6.63;;
7563;SDS011;3823;53.586;10.040;2023-11-18T02:57:46;8.88;;;7.20;;
7563;SDS011;3823;53.586;10.040;2023-11-18T03:00:12;10.15;;;7.20;;
7563;SDS011;3823;53.586;10.040;2023-11-18T03:02:47;10.02;;;7.13;;
7563;SDS011;3823;53.586;10.040;2023-11-18T03:05:13;11.45;;;8.10;;
7563;SDS011;3823;53.586;10.040;2023-11-18T03:07:49;11.35;;;7.32;;
7563;SDS011;3823;53.586;10.040;2023-11-18T03:10:18;8.02;;;6.35;;
7563;SDS011;3823;53.586;10.040;2023-11-18T03:12:47;8.95;;;6.50;;
7563;SDS011;3823;53.586;10.040;2023-11-18T03:15:20;9.88;;;6.63;;
7563;SDS011;3823;53.586;10.040;2023-11-18T03:17:49;10.63;;;7.43;;
7563;SDS011;3823;53.586;10.040;2023-11-18T03:20:15;10.52;;;7.07;;
7563;SDS011;3823;53.586;10.040;2023-11-18T03:22:48;10.40;;;6.85;;
7563;SDS011;3823;53.586;10.040;2023-11-18T03:25:15;11.80;;;7.38;;
7563;SDS011;3823;53.586;10.040;2023-11-18T03:27:41;10.65;;;7.22;;
7563;SDS011;3823;53.586;10.040;2023-11-18T03:30:07;10.57;;;7.07;;
7563;SDS011;3823;53.586;10.040;2023-11-18T03:32:33;9.48;;;6.25;;
7563;SDS011;3823;53.586;10.040;2023-11-18T03:35:00;8.85;;;6.30;;
7563;SDS011;3823;53.586;10.040;2023-11-18T03:37:27;8.27;;;6.55;;
7563;SDS011;3823;53.586;10.040;2023-11-18T03:39:53;9.45;;;6.32;;
7563;SDS011;3823;53.586;10.040;2023-11-18T03:42:18;10.60;;;6.55;;
7563;SDS011;3823;53.586;10.040;2023-11-18T03:44:44;8.32;;;6.13;;
7563;SDS011;3823;53.586;10.040;2023-11-18T03:47:13;8.43;;;6.40;;
7563;SDS011;3823;53.586;10.040;2023-11-18T03:49:39;9.25;;;6.35;;
7563;SDS011;3823;53.586;10.040;2023-11-18T03:52:05;8.95;;;6.15;;
7563;SDS011;3823;53.586;10.040;2023-11-18T03:54:31;11.55;;;7.45;;
7563;SDS011;3823;53.586;10.040;2023-11-18T03:56:56;9.05;;;6.82;;
7563;SDS011;3823;53.586;10.040;2023-11-18T03:59:22;9.48;;;6.75;;
7563;SDS011;3823;53.586;10.040;2023-11-18T04:01:48;7.63;;;5.93;;
7563;SDS011;3823;53.586;10.040;2023-11-18T04:04:15;7.45;;;5.95;;
7563;SDS011;3823;53.586;10.040;2023-11-18T04:06:41;10.57;;;7.35;;
7563;SDS011;3823;53.586;10.040;2023-11-18T04:09:07;8.90;;;6.65;;
7563;SDS011;3823;53.586;10.040;2023-11-18T04:11:34;9.80;;;5.85;;
7563;SDS011;3823;53.586;10.040;2023-11-18T04:14:00;9.18;;;6.25;;
7563;SDS011;3823;53.586;10.040;2023-11-18T04:16:28;8.00;;;5.82;;
7563;SDS011;3823;53.586;10.040;2023-11-18T04:18:53;8.45;;;6.95;;
7563;SDS011;3823;53.586;10.040;2023-11-18T04:21:19;7.80;;;6.03;;
7563;SDS011;3823;53.586;10.040;2023-11-18T04:23:44;8.48;;;5.82;;
7563;SDS011;3823;53.586;10.040;2023-11-18T04:26:11;8.10;;;6.65;;
7563;SDS011;3823;53.586;10.040;2023-11-18T04:28:37;8.10;;;6.82;;
7563;SDS011;3823;53.586;10.040;2023-11-18T04:31:03;9.63;;;6.57;;
7563;SDS011;3823;53.586;10.040;2023-11-18T04:33:30;7.22;;;6.45;;
7563;SDS011;3823;53.586;10.040;2023-11-18T04:35:56;8.75;;;6.60;;
7563;SDS011;3823;53.586;10.040;2023-11-18T04:38:24;8.38;;;6.30;;
7563;SDS011;3823;53.586;10.040;2023-11-18T04:40:51;7.60;;;6.53;;
7563;SDS011;3823;53.586;10.040;2023-11-18T04:43:17;9.35;;;6.75;;
7563;SDS011;3823;53.586;10.040;2023-11-18T04:45:43;11.77;;;6.28;;
7563;SDS011;3823;53.586;10.040;2023-11-18T04:48:08;9.05;;;6.13;;
7563;SDS011;3823;53.586;10.040;2023-11-18T04:50:34;10.30;;;6.53;;
7563;SDS011;3823;53.586;10.040;2023-11-18T04:53:00;12.43;;;6.78;;
7563;SDS011;3823;53.586;10.040;2023-11-18T04:55:25;8.80;;;7.20;;
7563;SDS011;3823;53.586;10.040;2023-11-18T04:57:51;10.55;;;6.88;;
7563;SDS011;3823;53.586;10.040;2023-11-18T05:00:17;9.90;;;6.85;;
7563;SDS011;3823;53.586;10.040;2023-11-18T05:02:44;9.35;;;6.57;;
7563;SDS011;3823;53.586;10.040;2023-11-18T05:05:12;13.50;;;6.97;;
7563;SDS011;3823;53.586;10.040;2023-11-18T05:07:39;9.85;;;6.70;;
7563;SDS011;3823;53.586;10.040;2023-11-18T05:10:05;9.30;;;6.78;;
7563;SDS011;3823;53.586;10.040;2023-11-18T05:12:33;9.85;;;7.95;;
7563;SDS011;3823;53.586;10.040;2023-11-18T05:14:58;9.63;;;7.13;;
7563;SDS011;3823;53.586;10.040;2023-11-18T05:17:25;9.60;;;6.63;;
7563;SDS011;3823;53.586;10.040;2023-11-18T05:19:52;11.40;;;7.43;;
7563;SDS011;3823;53.586;10.040;2023-11-18T05:22:18;9.93;;;8.68;;
7563;SDS011;3823;53.586;10.040;2023-11-18T05:24:44;13.43;;;8.25;;
7563;SDS011;3823;53.586;10.040;2023-11-18T05:27:10;10.65;;;8.07;;
7563;SDS011;3823;53.586;10.040;2023-11-18T05:29:36;11.77;;;7.82;;
7563;SDS011;3823;53.586;10.040;2023-11-18T05:32:02;11.82;;;7.97;;
7563;SDS011;3823;53.586;10.040;2023-11-18T05:34:27;12.27;;;6.93;;
7563;SDS011;3823;53.586;10.040;2023-11-18T05:36:54;15.15;;;8.57;;
7563;SDS011;3823;53.586;10.040;2023-11-18T05:39:20;16.73;;;9.57;;
7563;SDS011;3823;53.586;10.040;2023-11-18T05:41:49;12.73;;;9.05;;
7563;SDS011;3823;53.586;10.040;2023-11-18T05:44:15;12.75;;;7.93;;
7563;SDS011;3823;53.586;10.040;2023-11-18T05:46:47;11.48;;;8.70;;
7563;SDS011;3823;53.586;10.040;2023-11-18T05:49:16;14.95;;;9.30;;
7563;SDS011;3823;53.586;10.040;2023-11-18T05:51:43;15.65;;;9.25;;
7563;SDS011;3823;53.586;10.040;2023-11-18T05:54:08;12.07;;;8.93;;
7563;SDS011;3823;53.586;10.040;2023-11-18T05:56:34;12.57;;;8.77;;
7563;SDS011;3823;53.586;10.040;2023-11-18T05:59:00;12.40;;;8.45;;
7563;SDS011;3823;53.586;10.040;2023-11-18T06:01:27;15.70;;;8.73;;
7563;SDS011;3823;53.586;10.040;2023-11-18T06:03:53;12.38;;;8.45;;
7563;SDS011;3823;53.586;10.040;2023-11-18T06:06:19;13.55;;;7.95;;
7563;SDS011;3823;53.586;10.040;2023-11-18T06:08:46;11.30;;;7.90;;
7563;SDS011;3823;53.586;10.040;2023-11-18T06:11:12;10.93;;;7.60;;
7563;SDS011;3823;53.586;10.040;2023-11-18T06:13:48;13.77;;;8.55;;
7563;SDS011;3823;53.586;10.040;2023-11-18T06:16:15;13.73;;;8.35;;
7563;SDS011;3823;53.586;10.040;2023-11-18T06:18:45;13.65;;;7.78;;
7563;SDS011;3823;53.586;10.040;2023-11-18T06:21:15;12.75;;;8.40;;
7563;SDS011;3823;53.586;10.040;2023-11-18T06:23:43;12.95;;;8.18;;
7563;SDS011;3823;53.586;10.040;2023-11-18T06:26:10;12.45;;;8.27;;
7563;SDS011;3823;53.586;10.040;2023-11-18T06:28:39;14.23;;;8.00;;
7563;SDS011;3823;53.586;10.040;2023-11-18T06:31:07;13.32;;;8.32;;
7563;SDS011;3823;53.586;10.040;2023-11-18T06:33:36;18.80;;;9.23;;
7563;SDS011;3823;53.586;10.040;2023-11-18T06:36:09;13.20;;;8.55;;
7563;SDS011;3823;53.586;10.040;2023-11-18T06:38:47;15.27;;;10.45;;
7563;SDS011;3823;53.586;10.040;2023-11-18T06:41:15;11.43;;;7.97;;
7563;SDS011;3823;53.586;10.040;2023-11-18T06:43:42;14.30;;;9.10;;
7563;SDS011;3823;53.586;10.040;2023-11-18T06:46:21;13.32;;;8.52;;
7563;SDS011;3823;53.586;10.040;2023-11-18T06:48:49;13.55;;;9.13;;
7563;SDS011;3823;53.586;10.040;2023-11-18T06:51:22;12.02;;;8.57;;
7563;SDS011;3823;53.586;10.040;2023-11-18T06:53:49;13.57;;;8.80;;
7563;SDS011;3823;53.586;10.040;2023-11-18T06:56:16;15.13;;;8.98;;
7563;SDS011;3823;53.586;10.040;2023-11-18T06:58:42;15.80;;;9.63;;
7563;SDS011;3823;53.586;10.040;2023-11-18T07:01:08;16.63;;;10.10;;
7563;SDS011;3823;53.586;10.040;2023-11-18T07:03:34;14.68;;;9.45;;
7563;SDS011;3823;53.586;10.040;2023-11-18T07:06:01;15.90;;;9.13;;
7563;SDS011;3823;53.586;10.040;2023-11-18T07:08:30;18.65;;;8.85;;
7563;SDS011;3823;53.586;10.040;2023-11-18T07:10:56;10.93;;;7.88;;
7563;SDS011;3823;53.586;10.040;2023-11-18T07:13:22;13.77;;;8.98;;
7563;SDS011;3823;53.586;10.040;2023-11-18T07:15:48;12.90;;;8.82;;
7563;SDS011;3823;53.586;10.040;2023-11-18T07:18:14;14.30;;;9.75;;
7563;SDS011;3823;53.586;10.040;2023-11-18T07:20:41;11.57;;;8.45;;
7563;SDS011;3823;53.586;10.040;2023-11-18T07:23:06;15.88;;;9.50;;
7563;SDS011;3823;53.586;10.040;2023-11-18T07:25:33;12.32;;;7.85;;
7563;SDS011;3823;53.586;10.040;2023-11-18T07:27:59;12.13;;;7.90;;
7563;SDS011;3823;53.586;10.040;2023-11-18T07:30:24;10.48;;;7.55;;
7563;SDS011;3823;53.586;10.040;2023-11-18T07:32:50;9.65;;;8.18;;
7563;SDS011;3823;53.586;10.040;2023-11-18T07:35:16;10.10;;;7.60;;
7563;SDS011;3823;53.586;10.040;2023-11-18T07:37:42;14.38;;;8.05;;
7563;SDS011;3823;53.586;10.040;2023-11-18T07:40:08;11.57;;;7.80;;
7563;SDS011;3823;53.586;10.040;2023-11-18T07:42:36;13.10;;;8.32;;
7563;SDS011;3823;53.586;10.040;2023-11-18T07:45:03;13.77;;;7.82;;
7563;SDS011;3823;53.586;10.040;2023-11-18T07:47:30;12.77;;;8.65;;
7563;SDS011;3823;53.586;10.040;2023-11-18T07:49:59;13.05;;;8.35;;
7563;SDS011;3823;53.586;10.040;2023-11-18T07:52:28;13.18;;;8.30;;
7563;SDS011;3823;53.586;10.040;2023-11-18T07:54:54;11.23;;;7.68;;
7563;SDS011;3823;53.586;10.040;2023-11-18T07:57:19;12.10;;;7.88;;
7563;SDS011;3823;53.586;10.040;2023-11-18T07:59:45;10.38;;;7.97;;
7563;SDS011;3823;53.586;10.040;2023-11-18T08:02:11;11.02;;;8.00;;
7563;SDS011;3823;53.586;10.040;2023-11-18T08:04:39;15.25;;;8.60;;
7563;SDS011;3823;53.586;10.040;2023-11-18T08:07:06;12.07;;;8.43;;
7563;SDS011;3823;53.586;10.040;2023-11-18T08:09:32;17.90;;;8.68;;
7563;SDS011;3823;53.586;10.040;2023-11-18T08:11:58;11.00;;;7.50;;
7563;SDS011;3823;53.586;10.040;2023-11-18T08:14:24;12.10;;;7.97;;
7563;SDS011;3823;53.586;10.040;2023-11-18T08:16:49;12.52;;;7.13;;
7563;SDS011;3823;53.586;10.040;2023-11-18T08:19:16;9.20;;;6.65;;
7563;SDS011;3823;53.586;10.040;2023-11-18T08:21:42;9.30;;;6.07;;
7563;SDS011;3823;53.586;10.040;2023-11-18T08:24:08;7.68;;;6.35;;
7563;SDS011;3823;53.586;10.040;2023-11-18T08:26:34;11.48;;;6.80;;
7563;SDS011;3823;53.586;10.040;2023-11-18T08:29:00;8.85;;;6.90;;
7563;SDS011;3823;53.586;10.040;2023-11-18T08:31:26;10.68;;;7.55;;
7563;SDS011;3823;53.586;10.040;2023-11-18T08:33:52;12.18;;;7.65;;
7563;SDS011;3823;53.586;10.040;2023-11-18T08:36:19;8.15;;;6.50;;
7563;SDS011;3823;53.586;10.040;2023-11-18T08:38:45;10.77;;;6.95;;
7563;SDS011;3823;53.586;10.040;2023-11-18T08:41:12;10.55;;;7.45;;
7563;SDS011;3823;53.586;10.040;2023-11-18T08:43:37;15.07;;;9.57;;
7563;SDS011;3823;53.586;10.040;2023-11-18T08:46:06;10.60;;;6.72;;
7563;SDS011;3823;53.586;10.040;2023-11-18T08:48:32;12.50;;;8.13;;
7563;SDS011;3823;53.586;10.040;2023-11-18T08:50:59;9.98;;;6.82;;
7563;SDS011;3823;53.586;10.040;2023-11-18T08:53:26;12.38;;;8.32;;
7563;SDS011;3823;53.586;10.040;2023-11-18T08:55:52;8.27;;;6.47;;
7563;SDS011;3823;53.586;10.040;2023-11-18T08:58:21;7.22;;;6.10;;
7563;SDS011;3823;53.586;10.040;2023-11-18T09:00:51;7.47;;;5.38;;
7563;SDS011;3823;53.586;10.040;2023-11-18T09:03:18;10.32;;;6.28;;
7563;SDS011;3823;53.586;10.040;2023-11-18T09:06:14;10.55;;;5.93;;
7563;SDS011;3823;53.586;10.040;2023-11-18T09:08:50;8.27;;;5.43;;
7563;SDS011;3823;53.586;10.040;2023-11-18T09:11:23;10.02;;;5.88;;
7563;SDS011;3823;53.586;10.040;2023-11-18T09:13:52;8.75;;;6.18;;
7563;SDS011;3823;53.586;10.040;2023-11-18T09:16:24;10.07;;;5.72;;
7563;SDS011;3823;53.586;10.040;2023-11-18T09:18:54;10.40;;;6.47;;
7563;SDS011;3823;53.586;10.040;2023-11-18T09:21:21;11.80;;;6.05;;
7563;SDS011;3823;53.586;10.040;2023-11-18T09:23:54;7.68;;;4.88;;
7563;SDS011;3823;53.586;10.040;2023-11-18T09:26:21;6.88;;;5.80;;
7563;SDS011;3823;53.586;10.040;2023-11-18T09:28:47;8.30;;;6.05;;
7563;SDS011;3823;53.586;10.040;2023-11-18T09:31:14;8.10;;;5.10;;
7563;SDS011;3823;53.586;10.040;2023-11-18T09:33:41;10.98;;;5.10;;
7563;SDS011;3823;53.586;10.040;2023-11-18T09:36:16;5.32;;;4.32;;
7563;SDS011;3823;53.586;10.040;2023-11-18T09:38:43;7.50;;;5.32;;
7563;SDS011;3823;53.586;10.040;2023-11-18T09:41:11;7.55;;;4.75;;
7563;SDS011;3823;53.586;10.040;2023-11-18T09:43:41;8.07;;;5.13;;
7563;SDS011;3823;53.586;10.040;2023-11-18T09:46:12;6.50;;;4.70;;
7563;SDS011;3823;53.586;10.040;2023-11-18T09:49:01;6.70;;;5.03;;
7563;SDS011;3823;53.586;10.040;2023-11-18T09:51:39;7.93;;;4.75;;
7563;SDS011;3823;53.586;10.040;2023-11-18T09:54:12;4.90;;;4.40;;
7563;SDS011;3823;53.586;10.040;2023-11-18T09:59:23;5.78;;;3.58;;
7563;SDS011;3823;53.586;10.040;2023-11-18T10:01:57;6.20;;;3.97;;
7563;SDS011;3823;53.586;10.040;2023-11-18T10:04:23;4.72;;;4.00;;
7563;SDS011;3823;53.586;10.040;2023-11-18T10:06:52;5.43;;;3.92;;
7563;SDS011;3823;53.586;10.040;2023-11-18T10:09:19;4.00;;;3.60;;
7563;SDS011;3823;53.586;10.040;2023-11-18T10:11:53;7.10;;;3.92;;
7563;SDS011;3823;53.586;10.040;2023-11-18T10:14:30;5.80;;;3.35;;
7563;SDS011;3823;53.586;10.040;2023-11-18T10:16:59;4.72;;;4.07;;
7563;SDS011;3823;53.586;10.040;2023-11-18T10:22:22;4.78;;;3.90;;
7563;SDS011;3823;53.586;10.040;2023-11-18T10:24:50;6.10;;;3.75;;
7563;SDS011;3823;53.586;10.040;2023-11-18T10:27:19;4.97;;;4.15;;
7563;SDS011;3823;53.586;10.040;2023-11-18T10:29:55;5.22;;;3.78;;
7563;SDS011;3823;53.586;10.040;2023-11-18T10:32:27;4.57;;;3.95;;
7563;SDS011;3823;53.586;10.040;2023-11-18T10:34:56;4.72;;;3.45;;
7563;SDS011;3823;53.586;10.040;2023-11-18T10:37:22;3.72;;;3.42;;
7563;SDS011;3823;53.586;10.040;2023-11-18T10:39:48;4.25;;;3.45;;
7563;SDS011;3823;53.586;10.040;2023-11-18T10:42:16;4.68;;;3.55;;
7563;SDS011;3823;53.586;10.040;2023-11-18T10:44:54;4.55;;;3.78;;
7563;SDS011;3823;53.586;10.040;2023-11-18T10:47:22;4.70;;;3.92;;
7563;SDS011;3823;53.586;10.040;2023-11-18T10:49:50;4.70;;;3.30;;
7563;SDS011;3823;53.586;10.040;2023-11-18T10:52:16;3.28;;;2.97;;
7563;SDS011;3823;53.586;10.040;2023-11-18T10:54:51;3.70;;;3.10;;
7563;SDS011;3823;53.586;10.040;2023-11-18T10:57:19;3.40;;;2.97;;
7563;SDS011;3823;53.586;10.040;2023-11-18T11:00:02;2.97;;;2.67;;
7563;SDS011;3823;53.586;10.040;2023-11-18T11:02:38;3.40;;;2.92;;
7563;SDS011;3823;53.586;10.040;2023-11-18T11:05:10;3.28;;;2.88;;
7563;SDS011;3823;53.586;10.040;2023-11-18T11:07:42;4.57;;;3.45;;
7563;SDS011;3823;53.586;10.040;2023-11-18T11:10:08;2.53;;;2.33;;
7563;SDS011;3823;53.586;10.040;2023-11-18T11:12:43;3.05;;;2.58;;
7563;SDS011;3823;53.586;10.040;2023-11-18T11:15:27;2.90;;;2.28;;
7563;SDS011;3823;53.586;10.040;2023-11-18T11:17:57;3.10;;;2.00;;
7563;SDS011;3823;53.586;10.040;2023-11-18T11:20:34;8.32;;;2.55;;
7563;SDS011;3823;53.586;10.040;2023-11-18T11:23:13;3.28;;;2.38;;
7563;SDS011;3823;53.586;10.040;2023-11-18T11:31:20;4.15;;;2.42;;
7563;SDS011;3823;53.586;10.040;2023-11-18T11:36:25;4.38;;;2.67;;
7563;SDS011;3823;53.586;10.040;2023-11-18T11:38:59;3.88;;;2.20;;
7563;SDS011;3823;53.586;10.040;2023-11-18T11:41:26;3.85;;;2.85;;
7563;SDS011;3823;53.586;10.040;2023-11-18T11:43:53;4.45;;;3.03;;
7563;SDS011;3823;53.586;10.040;2023-11-18T11:46:23;4.32;;;3.42;;
7563;SDS011;3823;53.586;10.040;2023-11-18T11:48:52;3.92;;;3.55;;
7563;SDS011;3823;53.586;10.040;2023-11-18T11:51:28;3.60;;;3.08;;
7563;SDS011;3823;53.586;10.040;2023-11-18T11:54:04;4.47;;;4.07;;
7563;SDS011;3823;53.586;10.040;2023-11-18T11:56:44;6.07;;;3.05;;
7563;SDS011;3823;53.586;10.040;2023-11-18T11:59:17;3.40;;;3.10;;
7563;SDS011;3823;53.586;10.040;2023-11-18T12:02:01;4.57;;;3.75;;
7563;SDS011;3823;53.586;10.040;2023-11-18T12:04:32;4.15;;;3.70;;
7563;SDS011;3823;53.586;10.040;2023-11-18T12:07:03;5.70;;;3.63;;
7563;SDS011;3823;53.586;10.040;2023-11-18T12:09:30;5.05;;;4.25;;
7563;SDS011;3823;53.586;10.040;2023-11-18T12:12:03;4.60;;;3.95;;
7563;SDS011;3823;53.586;10.040;2023-11-18T12:14:31;7.00;;;4.68;;
7563;SDS011;3823;53.586;10.040;2023-11-18T12:19:46;5.15;;;3.85;;
7563;SDS011;3823;53.586;10.040;2023-11-18T12:22:14;4.40;;;3.63;;
7563;SDS011;3823;53.586;10.040;2023-11-18T12:24:44;5.68;;;4.20;;
7563;SDS011;3823;53.586;10.040;2023-11-18T12:27:12;5.18;;;3.58;;
7563;SDS011;3823;53.586;10.040;2023-11-18T12:29:41;6.85;;;3.97;;
7563;SDS011;3823;53.586;10.040;2023-11-18T12:32:10;6.55;;;3.95;;
7563;SDS011;3823;53.586;10.040;2023-11-18T12:34:54;4.95;;;4.05;;
7563;SDS011;3823;53.586;10.040;2023-11-18T12:40:09;3.42;;;3.13;;
7563;SDS011;3823;53.586;10.040;2023-11-18T12:43:08;3.60;;;3.03;;
7563;SDS011;3823;53.586;10.040;2023-11-18T12:48:15;3.92;;;2.90;;
7563;SDS011;3823;53.586;10.040;2023-11-18T12:50:51;3.97;;;2.78;;
7563;SDS011;3823;53.586;10.040;2023-11-18T12:53:20;3.97;;;3.58;;
7563;SDS011;3823;53.586;10.040;2023-11-18T12:55:49;5.22;;;3.60;;
7563;SDS011;3823;53.586;10.040;2023-11-18T12:58:15;3.17;;;2.88;;
7563;SDS011;3823;53.586;10.040;2023-11-18T13:00:43;4.43;;;3.63;;
7563;SDS011;3823;53.586;10.040;2023-11-18T13:03:10;5.70;;;4.00;;
7563;SDS011;3823;53.586;10.040;2023-11-18T13:05:36;3.85;;;3.42;;
7563;SDS011;3823;53.586;10.040;2023-11-18T13:08:02;5.47;;;3.50;;
7563;SDS011;3823;53.586;10.040;2023-11-18T13:10:29;5.82;;;4.03;;
7563;SDS011;3823;53.586;10.040;2023-11-18T13:12:55;5.00;;;3.80;;
7563;SDS011;3823;53.586;10.040;2023-11-18T13:15:23;4.85;;;4.45;;
7563;SDS011;3823;53.586;10.040;2023-11-18T13:17:56;3.88;;;3.55;;
7563;SDS011;3823;53.586;10.040;2023-11-18T13:20:23;4.35;;;3.95;;
7563;SDS011;3823;53.586;10.040;2023-11-18T13:22:51;4.45;;;3.63;;
7563;SDS011;3823;53.586;10.040;2023-11-18T13:25:17;5.10;;;4.13;;
7563;SDS011;3823;53.586;10.040;2023-11-18T13:27:43;5.60;;;3.95;;
7563;SDS011;3823;53.586;10.040;2023-11-18T13:30:09;6.35;;;4.80;;
7563;SDS011;3823;53.586;10.040;2023-11-18T13:32:44;4.78;;;3.60;;
7563;SDS011;3823;53.586;10.040;2023-11-18T13:35:10;4.90;;;4.13;;
7563;SDS011;3823;53.586;10.040;2023-11-18T13:37:45;7.50;;;4.97;;
7563;SDS011;3823;53.586;10.040;2023-11-18T13:40:14;5.47;;;3.50;;
7563;SDS011;3823;53.586;10.040;2023-11-18T13:42:43;8.07;;;4.60;;
7563;SDS011;3823;53.586;10.040;2023-11-18T13:45:09;5.72;;;4.43;;
7563;SDS011;3823;53.586;10.040;2023-11-18T13:47:51;6.78;;;4.97;;
7563;SDS011;3823;53.586;10.040;2023-11-18T13:50:20;5.32;;;4.60;;
7563;SDS011;3823;53.586;10.040;2023-11-18T13:52:46;5.45;;;4.30;;
7563;SDS011;3823;53.586;10.040;2023-11-18T13:55:14;5.65;;;5.05;;
7563;SDS011;3823;53.586;10.040;2023-11-18T13:57:56;8.05;;;4.88;;
7563;SDS011;3823;53.586;10.040;2023-11-18T14:00:23;6.00;;;4.85;;
7563;SDS011;3823;53.586;10.040;2023-11-18T14:02:52;6.18;;;4.88;;
7563;SDS011;3823;53.586;10.040;2023-11-18T14:05:19;6.50;;;4.78;;
7563;SDS011;3823;53.586;10.040;2023-11-18T14:07:53;6.53;;;4.55;;
7563;SDS011;3823;53.586;10.040;2023-11-18T14:10:24;5.53;;;4.40;;
7563;SDS011;3823;53.586;10.040;2023-11-18T14:13:05;7.60;;;4.80;;
7563;SDS011;3823;53.586;10.040;2023-11-18T14:15:36;6.50;;;4.50;;
7563;SDS011;3823;53.586;10.040;2023-11-18T14:18:02;5.95;;;4.97;;
7563;SDS011;3823;53.586;10.040;2023-11-18T14:20:29;7.38;;;4.65;;
7563;SDS011;3823;53.586;10.040;2023-11-18T14:22:56;7.32;;;4.85;;
7563;SDS011;3823;53.586;10.040;2023-11-18T14:25:23;6.32;;;4.93;;
7563;SDS011;3823;53.586;10.040;2023-11-18T14:27:49;7.65;;;4.20;;
7563;SDS011;3823;53.586;10.040;2023-11-18T14:30:16;6.75;;;4.68;;
7563;SDS011;3823;53.586;10.040;2023-11-18T14:32:42;5.63;;;4.10;;
7563;SDS011;3823;53.586;10.040;2023-11-18T14:35:08;5.78;;;4.20;;
7563;SDS011;3823;53.586;10.040;2023-11-18T14:37:38;5.53;;;4.20;;
7563;SDS011;3823;53.586;10.040;2023-11-18T14:40:07;6.78;;;4.63;;
7563;SDS011;3823;53.586;10.040;2023-11-18T14:42:38;4.40;;;3.45;;
7563;SDS011;3823;53.586;10.040;2023-11-18T14:45:06;5.72;;;4.32;;
7563;SDS011;3823;53.586;10.040;2023-11-18T14:47:33;5.85;;;3.78;;
7563;SDS011;3823;53.586;10.040;2023-11-18T14:49:59;4.78;;;4.10;;
7563;SDS011;3823;53.586;10.040;2023-11-18T14:52:24;3.95;;;3.60;;
7563;SDS011;3823;53.586;10.040;2023-11-18T14:54:50;4.15;;;3.42;;
7563;SDS011;3823;53.586;10.040;2023-11-18T14:57:16;4.85;;;3.25;;
7563;SDS011;3823;53.586;10.040;2023-11-18T14:59:41;7.25;;;4.18;;
7563;SDS011;3823;53.586;10.040;2023-11-18T15:02:07;6.68;;;4.32;;
7563;SDS011;3823;53.586;10.040;2023-11-18T15:04:33;4.82;;;3.58;;
7563;SDS011;3823;53.586;10.040;2023-11-18T15:06:58;7.50;;;3.92;;
7563;SDS011;3823;53.586;10.040;2023-11-18T15:09:24;4.20;;;3.42;;
7563;SDS011;3823;53.586;10.040;2023-11-18T15:11:49;6.43;;;3.97;;
7563;SDS011;3823;53.586;10.040;2023-11-18T15:14:18;7.82;;;4.55;;
7563;SDS011;3823;53.586;10.040;2023-11-18T15:16:44;6.20;;;3.58;;
7563;SDS011;3823;53.586;10.040;2023-11-18T15:19:11;4.30;;;3.50;;
7563;SDS011;3823;53.586;10.040;2023-11-18T15:21:37;4.38;;;3.80;;
7563;SDS011;3823;53.586;10.040;2023-11-18T15:24:03;6.50;;;4.22;;